sensor_id;sensor_type;location;lat;lon;timestamp;temperature;humidity
36990;DHT22;22898;52.102;5.776;2023-05-07T00:00:36;23.80;99.90
36990;DHT22;22898;52.102;5.776;2023-05-07T00:03:02;23.70;99.90
36990;DHT22;22898;52.102;5.776;2023-05-07T00:05:29;23.60;99.90
36990;DHT22;22898;52.102;5.776;2023-05-07T00:07:54;23.50;99.90
36990;DHT22;22898;52.102;5.776;2023-05-07T00:10:20;23.50;99.90
36990;DHT22;22898;52.102;5.776;2023-05-07T00:12:46;23.60;99.90
36990;DHT22;22898;52.102;5.776;2023-05-07T00:15:11;23.50;99.90
36990;DHT22;22898;52.102;5.776;2023-05-07T00:17:37;23.50;99.90
36990;DHT22;22898;52.102;5.776;2023-05-07T00:20:06;23.60;99.90
36990;DHT22;22898;52.102;5.776;2023-05-07T00:22:32;23.60;99.90
36990;DHT22;22898;52.102;5.776;2023-05-07T00:24:58;23.70;99.90
36990;DHT22;22898;52.102;5.776;2023-05-07T00:27:24;23.70;99.90
36990;DHT22;22898;52.102;5.776;2023-05-07T00:29:50;23.70;99.90
36990;DHT22;22898;52.102;5.776;2023-05-07T00:32:16;23.70;99.90
36990;DHT22;22898;52.102;5.776;2023-05-07T00:34:42;23.70;99.90
36990;DHT22;22898;52.102;5.776;2023-05-07T00:37:08;23.80;99.90
36990;DHT22;22898;52.102;5.776;2023-05-07T00:39:34;23.80;99.90
36990;DHT22;22898;52.102;5.776;2023-05-07T00:42:00;23.60;99.90
36990;DHT22;22898;52.102;5.776;2023-05-07T00:44:26;23.50;99.90
36990;DHT22;22898;52.102;5.776;2023-05-07T00:46:52;23.50;99.90
36990;DHT22;22898;52.102;5.776;2023-05-07T00:49:18;23.50;99.90
36990;DHT22;22898;52.102;5.776;2023-05-07T00:51:45;23.50;99.90
36990;DHT22;22898;52.102;5.776;2023-05-07T00:54:10;23.50;99.90
36990;DHT22;22898;52.102;5.776;2023-05-07T00:56:36;23.50;99.90
36990;DHT22;22898;52.102;5.776;2023-05-07T00:59:02;23.40;99.90
36990;DHT22;22898;52.102;5.776;2023-05-07T01:01:28;23.40;99.90
36990;DHT22;22898;52.102;5.776;2023-05-07T01:03:54;23.50;99.90
36990;DHT22;22898;52.102;5.776;2023-05-07T01:06:21;23.40;99.90
36990;DHT22;22898;52.102;5.776;2023-05-07T01:08:47;23.40;99.90
36990;DHT22;22898;52.102;5.776;2023-05-07T01:11:14;23.40;99.90
36990;DHT22;22898;52.102;5.776;2023-05-07T01:13:40;23.50;99.90
36990;DHT22;22898;52.102;5.776;2023-05-07T01:16:07;23.50;99.90
36990;DHT22;22898;52.102;5.776;2023-05-07T01:18:34;23.40;99.90
36990;DHT22;22898;52.102;5.776;2023-05-07T01:21:01;23.40;99.90
36990;DHT22;22898;52.102;5.776;2023-05-07T01:23:30;23.30;99.90
36990;DHT22;22898;52.102;5.776;2023-05-07T01:25:56;23.30;99.90
36990;DHT22;22898;52.102;5.776;2023-05-07T01:28:22;23.20;99.90
36990;DHT22;22898;52.102;5.776;2023-05-07T01:30:52;23.20;99.90
36990;DHT22;22898;52.102;5.776;2023-05-07T01:33:20;23.10;99.90
36990;DHT22;22898;52.102;5.776;2023-05-07T01:35:51;23.00;99.90
36990;DHT22;22898;52.102;5.776;2023-05-07T01:38:18;23.00;99.90
36990;DHT22;22898;52.102;5.776;2023-05-07T01:40:44;23.10;99.90
36990;DHT22;22898;52.102;5.776;2023-05-07T01:43:10;23.10;99.90
36990;DHT22;22898;52.102;5.776;2023-05-07T01:45:36;23.20;99.90
36990;DHT22;22898;52.102;5.776;2023-05-07T01:48:02;23.00;99.90
36990;DHT22;22898;52.102;5.776;2023-05-07T01:50:33;23.00;99.90
36990;DHT22;22898;52.102;5.776;2023-05-07T01:53:01;23.00;99.90
36990;DHT22;22898;52.102;5.776;2023-05-07T01:55:27;22.90;99.90
36990;DHT22;22898;52.102;5.776;2023-05-07T01:57:53;22.90;99.90
36990;DHT22;22898;52.102;5.776;2023-05-07T02:00:19;22.90;99.90
36990;DHT22;22898;52.102;5.776;2023-05-07T02:02:44;22.80;99.90
36990;DHT22;22898;52.102;5.776;2023-05-07T02:05:10;22.70;99.90
36990;DHT22;22898;52.102;5.776;2023-05-07T02:07:36;22.80;99.90
36990;DHT22;22898;52.102;5.776;2023-05-07T02:10:01;22.90;99.90
36990;DHT22;22898;52.102;5.776;2023-05-07T02:12:28;22.90;99.90
36990;DHT22;22898;52.102;5.776;2023-05-07T02:14:53;22.90;99.90
36990;DHT22;22898;52.102;5.776;2023-05-07T02:17:19;22.90;99.90
36990;DHT22;22898;52.102;5.776;2023-05-07T02:19:44;23.00;99.90
36990;DHT22;22898;52.102;5.776;2023-05-07T02:22:10;23.00;99.90
36990;DHT22;22898;52.102;5.776;2023-05-07T02:24:36;22.90;99.90
36990;DHT22;22898;52.102;5.776;2023-05-07T02:27:01;23.00;99.90
36990;DHT22;22898;52.102;5.776;2023-05-07T02:29:28;23.00;99.90
36990;DHT22;22898;52.102;5.776;2023-05-07T02:31:54;23.10;99.90
36990;DHT22;22898;52.102;5.776;2023-05-07T02:34:20;23.10;99.90
36990;DHT22;22898;52.102;5.776;2023-05-07T02:36:46;23.10;99.90
36990;DHT22;22898;52.102;5.776;2023-05-07T02:39:12;23.10;99.90
36990;DHT22;22898;52.102;5.776;2023-05-07T02:41:38;23.20;99.90
36990;DHT22;22898;52.102;5.776;2023-05-07T02:44:05;23.10;99.90
36990;DHT22;22898;52.102;5.776;2023-05-07T02:46:30;23.10;99.90
36990;DHT22;22898;52.102;5.776;2023-05-07T02:48:56;23.10;99.90
36990;DHT22;22898;52.102;5.776;2023-05-07T02:51:22;23.00;99.90
36990;DHT22;22898;52.102;5.776;2023-05-07T02:53:48;23.00;99.90
36990;DHT22;22898;52.102;5.776;2023-05-07T02:56:14;23.00;99.90
36990;DHT22;22898;52.102;5.776;2023-05-07T02:58:40;23.00;99.90
36990;DHT22;22898;52.102;5.776;2023-05-07T03:01:07;23.00;99.90
36990;DHT22;22898;52.102;5.776;2023-05-07T03:03:33;23.00;99.90
36990;DHT22;22898;52.102;5.776;2023-05-07T03:05:58;23.00;99.90
36990;DHT22;22898;52.102;5.776;2023-05-07T03:08:24;23.00;99.90
36990;DHT22;22898;52.102;5.776;2023-05-07T03:10:50;23.00;99.90
36990;DHT22;22898;52.102;5.776;2023-05-07T03:13:16;23.00;99.90
36990;DHT22;22898;52.102;5.776;2023-05-07T03:15:41;23.00;99.90
36990;DHT22;22898;52.102;5.776;2023-05-07T03:18:07;22.90;99.90
36990;DHT22;22898;52.102;5.776;2023-05-07T03:20:32;23.00;99.90
36990;DHT22;22898;52.102;5.776;2023-05-07T03:22:58;22.80;99.90
36990;DHT22;22898;52.102;5.776;2023-05-07T03:25:24;22.80;99.90
36990;DHT22;22898;52.102;5.776;2023-05-07T03:27:49;22.80;99.90
36990;DHT22;22898;52.102;5.776;2023-05-07T03:30:15;22.90;99.90
36990;DHT22;22898;52.102;5.776;2023-05-07T03:32:40;23.00;99.90
36990;DHT22;22898;52.102;5.776;2023-05-07T03:35:06;22.80;99.90
36990;DHT22;22898;52.102;5.776;2023-05-07T03:37:32;22.60;99.90
36990;DHT22;22898;52.102;5.776;2023-05-07T03:39:58;22.60;99.90
36990;DHT22;22898;52.102;5.776;2023-05-07T03:42:23;22.70;99.90
36990;DHT22;22898;52.102;5.776;2023-05-07T03:44:49;22.80;99.90
36990;DHT22;22898;52.102;5.776;2023-05-07T03:47:15;22.80;99.90
36990;DHT22;22898;52.102;5.776;2023-05-07T03:49:40;22.80;99.90
36990;DHT22;22898;52.102;5.776;2023-05-07T03:52:06;22.70;99.90
36990;DHT22;22898;52.102;5.776;2023-05-07T03:54:32;22.80;99.90
36990;DHT22;22898;52.102;5.776;2023-05-07T03:56:58;22.80;99.90
36990;DHT22;22898;52.102;5.776;2023-05-07T03:59:23;22.80;99.90
36990;DHT22;22898;52.102;5.776;2023-05-07T04:01:49;22.60;99.90
36990;DHT22;22898;52.102;5.776;2023-05-07T04:04:15;22.60;99.90
36990;DHT22;22898;52.102;5.776;2023-05-07T04:06:41;22.50;99.90
36990;DHT22;22898;52.102;5.776;2023-05-07T04:09:07;22.40;99.90
36990;DHT22;22898;52.102;5.776;2023-05-07T04:11:32;22.30;99.90
36990;DHT22;22898;52.102;5.776;2023-05-07T04:13:58;22.40;99.90
36990;DHT22;22898;52.102;5.776;2023-05-07T04:16:23;22.50;99.90
36990;DHT22;22898;52.102;5.776;2023-05-07T04:18:49;22.60;99.90
36990;DHT22;22898;52.102;5.776;2023-05-07T04:21:16;22.50;99.90
36990;DHT22;22898;52.102;5.776;2023-05-07T04:23:42;22.30;99.90
36990;DHT22;22898;52.102;5.776;2023-05-07T04:26:07;22.20;99.90
36990;DHT22;22898;52.102;5.776;2023-05-07T04:28:33;22.10;99.90
36990;DHT22;22898;52.102;5.776;2023-05-07T04:30:59;22.00;99.90
36990;DHT22;22898;52.102;5.776;2023-05-07T04:33:24;21.80;99.90
36990;DHT22;22898;52.102;5.776;2023-05-07T04:35:50;21.90;99.90
36990;DHT22;22898;52.102;5.776;2023-05-07T04:38:16;21.90;99.90
36990;DHT22;22898;52.102;5.776;2023-05-07T04:40:42;22.00;99.90
36990;DHT22;22898;52.102;5.776;2023-05-07T04:43:07;22.00;99.90
36990;DHT22;22898;52.102;5.776;2023-05-07T04:45:34;22.10;99.90
36990;DHT22;22898;52.102;5.776;2023-05-07T04:48:00;22.10;99.90
36990;DHT22;22898;52.102;5.776;2023-05-07T04:50:26;22.00;99.90
36990;DHT22;22898;52.102;5.776;2023-05-07T04:52:51;22.00;99.90
36990;DHT22;22898;52.102;5.776;2023-05-07T04:55:17;22.00;99.90
36990;DHT22;22898;52.102;5.776;2023-05-07T04:57:43;22.10;99.90
36990;DHT22;22898;52.102;5.776;2023-05-07T05:00:08;22.00;99.90
36990;DHT22;22898;52.102;5.776;2023-05-07T05:02:34;22.00;99.90
36990;DHT22;22898;52.102;5.776;2023-05-07T05:05:01;22.10;99.90
36990;DHT22;22898;52.102;5.776;2023-05-07T05:07:29;22.00;99.90
36990;DHT22;22898;52.102;5.776;2023-05-07T05:09:55;22.20;99.90
36990;DHT22;22898;52.102;5.776;2023-05-07T05:12:20;22.30;99.90
36990;DHT22;22898;52.102;5.776;2023-05-07T05:14:46;22.30;99.90
36990;DHT22;22898;52.102;5.776;2023-05-07T05:17:12;22.20;99.90
36990;DHT22;22898;52.102;5.776;2023-05-07T05:19:37;22.00;99.90
36990;DHT22;22898;52.102;5.776;2023-05-07T05:22:04;21.80;99.90
36990;DHT22;22898;52.102;5.776;2023-05-07T05:24:31;21.90;99.90
36990;DHT22;22898;52.102;5.776;2023-05-07T05:26:56;21.80;99.90
36990;DHT22;22898;52.102;5.776;2023-05-07T05:29:22;21.90;99.90
36990;DHT22;22898;52.102;5.776;2023-05-07T05:31:48;21.80;99.90
36990;DHT22;22898;52.102;5.776;2023-05-07T05:34:13;21.80;99.90
36990;DHT22;22898;52.102;5.776;2023-05-07T05:36:39;22.10;99.90
36990;DHT22;22898;52.102;5.776;2023-05-07T05:39:05;22.00;99.90
36990;DHT22;22898;52.102;5.776;2023-05-07T05:41:31;22.10;99.90
36990;DHT22;22898;52.102;5.776;2023-05-07T05:43:56;22.20;99.90
36990;DHT22;22898;52.102;5.776;2023-05-07T05:46:22;22.10;99.90
36990;DHT22;22898;52.102;5.776;2023-05-07T05:48:47;21.80;99.90
36990;DHT22;22898;52.102;5.776;2023-05-07T05:51:13;21.80;99.90
36990;DHT22;22898;52.102;5.776;2023-05-07T05:53:39;21.80;99.90
36990;DHT22;22898;52.102;5.776;2023-05-07T05:56:05;21.60;99.90
36990;DHT22;22898;52.102;5.776;2023-05-07T05:58:31;21.40;99.90
36990;DHT22;22898;52.102;5.776;2023-05-07T06:00:56;21.50;99.90
36990;DHT22;22898;52.102;5.776;2023-05-07T06:03:23;21.70;99.90
36990;DHT22;22898;52.102;5.776;2023-05-07T06:05:49;21.70;99.90
36990;DHT22;22898;52.102;5.776;2023-05-07T06:08:14;21.70;99.90
36990;DHT22;22898;52.102;5.776;2023-05-07T06:10:40;21.40;99.90
36990;DHT22;22898;52.102;5.776;2023-05-07T06:13:06;21.30;99.90
36990;DHT22;22898;52.102;5.776;2023-05-07T06:15:31;21.50;99.90
36990;DHT22;22898;52.102;5.776;2023-05-07T06:17:57;21.60;99.90
36990;DHT22;22898;52.102;5.776;2023-05-07T06:20:23;21.50;99.90
36990;DHT22;22898;52.102;5.776;2023-05-07T06:22:48;21.60;99.90
36990;DHT22;22898;52.102;5.776;2023-05-07T06:25:14;21.70;99.90
36990;DHT22;22898;52.102;5.776;2023-05-07T06:27:40;21.70;99.90
36990;DHT22;22898;52.102;5.776;2023-05-07T06:30:06;21.70;99.90
36990;DHT22;22898;52.102;5.776;2023-05-07T06:32:32;22.00;99.90
36990;DHT22;22898;52.102;5.776;2023-05-07T06:34:57;22.20;99.90
36990;DHT22;22898;52.102;5.776;2023-05-07T06:37:23;22.30;99.90
36990;DHT22;22898;52.102;5.776;2023-05-07T06:39:48;22.50;99.90
36990;DHT22;22898;52.102;5.776;2023-05-07T06:42:14;22.60;99.90
36990;DHT22;22898;52.102;5.776;2023-05-07T06:44:40;22.40;99.90
36990;DHT22;22898;52.102;5.776;2023-05-07T06:47:05;22.20;99.90
36990;DHT22;22898;52.102;5.776;2023-05-07T06:49:31;22.50;99.90
36990;DHT22;22898;52.102;5.776;2023-05-07T06:51:57;22.90;99.90
36990;DHT22;22898;52.102;5.776;2023-05-07T06:54:22;22.80;99.90
36990;DHT22;22898;52.102;5.776;2023-05-07T06:56:48;23.00;99.90
36990;DHT22;22898;52.102;5.776;2023-05-07T06:59:13;23.10;99.90
36990;DHT22;22898;52.102;5.776;2023-05-07T07:01:39;23.30;99.90
36990;DHT22;22898;52.102;5.776;2023-05-07T07:04:05;23.20;99.90
36990;DHT22;22898;52.102;5.776;2023-05-07T07:06:31;23.10;99.90
36990;DHT22;22898;52.102;5.776;2023-05-07T07:08:58;23.10;99.90
36990;DHT22;22898;52.102;5.776;2023-05-07T07:11:23;23.20;99.90
36990;DHT22;22898;52.102;5.776;2023-05-07T07:13:49;23.50;99.90
36990;DHT22;22898;52.102;5.776;2023-05-07T07:16:16;23.60;99.90
36990;DHT22;22898;52.102;5.776;2023-05-07T07:18:41;23.40;99.90
36990;DHT22;22898;52.102;5.776;2023-05-07T07:21:07;23.60;99.90
36990;DHT22;22898;52.102;5.776;2023-05-07T07:23:32;23.70;99.90
36990;DHT22;22898;52.102;5.776;2023-05-07T07:25:58;23.60;99.90
36990;DHT22;22898;52.102;5.776;2023-05-07T07:28:23;23.20;99.90
36990;DHT22;22898;52.102;5.776;2023-05-07T07:30:49;23.00;99.90
36990;DHT22;22898;52.102;5.776;2023-05-07T07:33:15;23.10;99.90
36990;DHT22;22898;52.102;5.776;2023-05-07T07:35:41;23.30;99.90
36990;DHT22;22898;52.102;5.776;2023-05-07T07:38:06;23.60;99.90
36990;DHT22;22898;52.102;5.776;2023-05-07T07:40:34;23.30;99.90
36990;DHT22;22898;52.102;5.776;2023-05-07T07:43:00;22.90;99.90
36990;DHT22;22898;52.102;5.776;2023-05-07T07:45:26;22.60;99.90
36990;DHT22;22898;52.102;5.776;2023-05-07T07:47:52;22.70;99.90
36990;DHT22;22898;52.102;5.776;2023-05-07T07:50:18;22.30;99.90
36990;DHT22;22898;52.102;5.776;2023-05-07T07:52:44;22.20;99.90
36990;DHT22;22898;52.102;5.776;2023-05-07T07:55:09;22.70;99.90
36990;DHT22;22898;52.102;5.776;2023-05-07T07:57:35;23.20;99.90
36990;DHT22;22898;52.102;5.776;2023-05-07T08:00:01;23.70;99.90
36990;DHT22;22898;52.102;5.776;2023-05-07T08:02:26;23.70;99.90
36990;DHT22;22898;52.102;5.776;2023-05-07T08:04:52;23.90;99.90
36990;DHT22;22898;52.102;5.776;2023-05-07T08:07:17;24.10;99.90
36990;DHT22;22898;52.102;5.776;2023-05-07T08:09:46;24.10;99.90
36990;DHT22;22898;52.102;5.776;2023-05-07T08:12:11;24.30;99.90
36990;DHT22;22898;52.102;5.776;2023-05-07T08:14:37;24.30;99.90
36990;DHT22;22898;52.102;5.776;2023-05-07T08:17:02;24.50;99.90
36990;DHT22;22898;52.102;5.776;2023-05-07T08:19:28;24.50;99.90
36990;DHT22;22898;52.102;5.776;2023-05-07T08:21:53;24.40;99.90
36990;DHT22;22898;52.102;5.776;2023-05-07T08:24:20;24.20;99.90
36990;DHT22;22898;52.102;5.776;2023-05-07T08:26:46;24.00;99.90
36990;DHT22;22898;52.102;5.776;2023-05-07T08:29:11;24.10;99.90
36990;DHT22;22898;52.102;5.776;2023-05-07T08:31:37;24.10;99.90
36990;DHT22;22898;52.102;5.776;2023-05-07T08:34:05;24.00;99.90
36990;DHT22;22898;52.102;5.776;2023-05-07T08:36:31;24.20;99.90
36990;DHT22;22898;52.102;5.776;2023-05-07T08:38:57;24.50;99.90
36990;DHT22;22898;52.102;5.776;2023-05-07T08:41:22;24.60;99.90
36990;DHT22;22898;52.102;5.776;2023-05-07T08:43:49;24.80;99.90
36990;DHT22;22898;52.102;5.776;2023-05-07T08:46:20;25.20;99.90
36990;DHT22;22898;52.102;5.776;2023-05-07T08:48:50;25.30;99.80
36990;DHT22;22898;52.102;5.776;2023-05-07T08:51:18;25.30;99.20
36990;DHT22;22898;52.102;5.776;2023-05-07T08:53:44;25.20;99.70
36990;DHT22;22898;52.102;5.776;2023-05-07T08:56:10;24.90;99.90
36990;DHT22;22898;52.102;5.776;2023-05-07T08:58:36;25.00;99.90
36990;DHT22;22898;52.102;5.776;2023-05-07T09:01:16;25.00;99.90
36990;DHT22;22898;52.102;5.776;2023-05-07T09:03:44;25.20;99.90
36990;DHT22;22898;52.102;5.776;2023-05-07T09:06:10;25.30;99.90
36990;DHT22;22898;52.102;5.776;2023-05-07T09:08:36;25.30;99.90
36990;DHT22;22898;52.102;5.776;2023-05-07T09:11:02;25.30;99.90
36990;DHT22;22898;52.102;5.776;2023-05-07T09:13:28;25.40;99.90
36990;DHT22;22898;52.102;5.776;2023-05-07T09:15:55;25.20;99.90
36990;DHT22;22898;52.102;5.776;2023-05-07T09:18:20;25.40;99.90
36990;DHT22;22898;52.102;5.776;2023-05-07T09:20:46;25.50;99.90
36990;DHT22;22898;52.102;5.776;2023-05-07T09:23:12;25.70;99.70
36990;DHT22;22898;52.102;5.776;2023-05-07T09:25:37;25.80;99.90
36990;DHT22;22898;52.102;5.776;2023-05-07T09:28:04;25.80;99.40
36990;DHT22;22898;52.102;5.776;2023-05-07T09:30:35;25.70;99.50
36990;DHT22;22898;52.102;5.776;2023-05-07T09:33:03;25.70;99.90
36990;DHT22;22898;52.102;5.776;2023-05-07T09:35:30;25.90;99.90
36990;DHT22;22898;52.102;5.776;2023-05-07T09:38:00;25.80;99.90
36990;DHT22;22898;52.102;5.776;2023-05-07T09:40:28;26.30;99.50
36990;DHT22;22898;52.102;5.776;2023-05-07T09:42:54;26.50;98.20
36990;DHT22;22898;52.102;5.776;2023-05-07T09:45:27;26.70;98.10
36990;DHT22;22898;52.102;5.776;2023-05-07T09:47:57;26.90;97.90
36990;DHT22;22898;52.102;5.776;2023-05-07T09:50:32;26.60;98.60
36990;DHT22;22898;52.102;5.776;2023-05-07T09:53:01;26.80;97.40
36990;DHT22;22898;52.102;5.776;2023-05-07T09:55:28;26.70;98.10
36990;DHT22;22898;52.102;5.776;2023-05-07T09:57:54;26.70;97.30
36990;DHT22;22898;52.102;5.776;2023-05-07T10:00:21;26.60;97.70
36990;DHT22;22898;52.102;5.776;2023-05-07T10:02:52;26.40;98.10
36990;DHT22;22898;52.102;5.776;2023-05-07T10:05:19;26.50;98.30
36990;DHT22;22898;52.102;5.776;2023-05-07T10:07:48;26.60;97.60
36990;DHT22;22898;52.102;5.776;2023-05-07T10:10:15;26.90;97.10
36990;DHT22;22898;52.102;5.776;2023-05-07T10:12:43;26.90;97.10
36990;DHT22;22898;52.102;5.776;2023-05-07T10:15:12;26.90;96.30
36990;DHT22;22898;52.102;5.776;2023-05-07T10:17:39;26.50;96.80
36990;DHT22;22898;52.102;5.776;2023-05-07T10:20:06;26.50;96.90
36990;DHT22;22898;52.102;5.776;2023-05-07T10:22:38;26.70;96.50
36990;DHT22;22898;52.102;5.776;2023-05-07T10:25:09;26.80;96.90
36990;DHT22;22898;52.102;5.776;2023-05-07T10:27:38;26.90;95.90
36990;DHT22;22898;52.102;5.776;2023-05-07T10:33:22;26.60;97.30
36990;DHT22;22898;52.102;5.776;2023-05-07T10:35:49;26.70;96.90
36990;DHT22;22898;52.102;5.776;2023-05-07T10:38:14;26.80;95.90
36990;DHT22;22898;52.102;5.776;2023-05-07T10:40:40;26.80;95.60
36990;DHT22;22898;52.102;5.776;2023-05-07T10:43:06;27.00;95.50
36990;DHT22;22898;52.102;5.776;2023-05-07T10:45:32;27.30;95.20
36990;DHT22;22898;52.102;5.776;2023-05-07T10:50:37;27.00;95.30
36990;DHT22;22898;52.102;5.776;2023-05-07T10:55:48;26.60;96.10
36990;DHT22;22898;52.102;5.776;2023-05-07T10:58:25;27.10;96.00
36990;DHT22;22898;52.102;5.776;2023-05-07T11:01:01;27.50;94.90
36990;DHT22;22898;52.102;5.776;2023-05-07T11:03:28;28.00;94.30
36990;DHT22;22898;52.102;5.776;2023-05-07T11:06:11;28.40;93.90
36990;DHT22;22898;52.102;5.776;2023-05-07T11:11:18;27.70;94.80
36990;DHT22;22898;52.102;5.776;2023-05-07T11:13:48;27.70;95.10
36990;DHT22;22898;52.102;5.776;2023-05-07T11:16:19;28.00;94.10
36990;DHT22;22898;52.102;5.776;2023-05-07T11:18:49;28.20;93.30
36990;DHT22;22898;52.102;5.776;2023-05-07T11:21:34;28.50;92.90
36990;DHT22;22898;52.102;5.776;2023-05-07T11:24:01;28.40;93.50
36990;DHT22;22898;52.102;5.776;2023-05-07T11:26:29;29.00;93.70
36990;DHT22;22898;52.102;5.776;2023-05-07T11:28:55;29.20;93.60
36990;DHT22;22898;52.102;5.776;2023-05-07T11:31:24;29.40;92.30
36990;DHT22;22898;52.102;5.776;2023-05-07T11:33:49;29.60;91.90
36990;DHT22;22898;52.102;5.776;2023-05-07T11:36:15;29.80;92.20
36990;DHT22;22898;52.102;5.776;2023-05-07T11:38:42;29.60;91.90
36990;DHT22;22898;52.102;5.776;2023-05-07T11:41:07;29.40;92.20
36990;DHT22;22898;52.102;5.776;2023-05-07T11:43:34;29.70;90.10
36990;DHT22;22898;52.102;5.776;2023-05-07T11:46:10;29.90;89.40
36990;DHT22;22898;52.102;5.776;2023-05-07T11:48:37;29.60;90.20
36990;DHT22;22898;52.102;5.776;2023-05-07T11:51:07;29.80;89.40
36990;DHT22;22898;52.102;5.776;2023-05-07T11:53:39;30.10;90.00
36990;DHT22;22898;52.102;5.776;2023-05-07T11:56:09;30.30;88.60
36990;DHT22;22898;52.102;5.776;2023-05-07T11:58:35;30.00;89.50
36990;DHT22;22898;52.102;5.776;2023-05-07T12:01:01;29.70;89.90
36990;DHT22;22898;52.102;5.776;2023-05-07T12:03:27;29.60;89.50
36990;DHT22;22898;52.102;5.776;2023-05-07T12:05:52;29.40;90.10
36990;DHT22;22898;52.102;5.776;2023-05-07T12:08:20;29.30;90.00
36990;DHT22;22898;52.102;5.776;2023-05-07T12:10:47;29.30;89.40
36990;DHT22;22898;52.102;5.776;2023-05-07T12:13:17;29.20;89.80
36990;DHT22;22898;52.102;5.776;2023-05-07T12:15:44;29.30;89.90
36990;DHT22;22898;52.102;5.776;2023-05-07T12:18:11;29.40;89.90
36990;DHT22;22898;52.102;5.776;2023-05-07T12:20:37;29.30;90.10
36990;DHT22;22898;52.102;5.776;2023-05-07T12:23:03;29.10;90.50
36990;DHT22;22898;52.102;5.776;2023-05-07T12:25:40;29.00;91.10
36990;DHT22;22898;52.102;5.776;2023-05-07T12:28:16;28.80;90.50
36990;DHT22;22898;52.102;5.776;2023-05-07T12:30:46;28.70;91.20
36990;DHT22;22898;52.102;5.776;2023-05-07T12:33:16;28.50;91.60
36990;DHT22;22898;52.102;5.776;2023-05-07T12:35:42;28.20;91.80
36990;DHT22;22898;52.102;5.776;2023-05-07T12:38:13;27.90;92.30
36990;DHT22;22898;52.102;5.776;2023-05-07T12:40:44;27.90;92.50
36990;DHT22;22898;52.102;5.776;2023-05-07T12:43:21;27.90;92.60
36990;DHT22;22898;52.102;5.776;2023-05-07T12:45:49;28.00;92.60
36990;DHT22;22898;52.102;5.776;2023-05-07T12:48:15;27.90;92.80
36990;DHT22;22898;52.102;5.776;2023-05-07T12:50:41;27.70;93.50
36990;DHT22;22898;52.102;5.776;2023-05-07T12:53:07;27.30;93.80
36990;DHT22;22898;52.102;5.776;2023-05-07T12:55:44;27.10;94.50
36990;DHT22;22898;52.102;5.776;2023-05-07T12:58:28;26.90;95.00
36990;DHT22;22898;52.102;5.776;2023-05-07T13:00:55;26.90;94.80
36990;DHT22;22898;52.102;5.776;2023-05-07T13:03:33;27.00;95.30
36990;DHT22;22898;52.102;5.776;2023-05-07T13:06:02;27.40;95.00
36990;DHT22;22898;52.102;5.776;2023-05-07T13:08:36;27.40;94.60
36990;DHT22;22898;52.102;5.776;2023-05-07T13:11:04;27.50;94.80
36990;DHT22;22898;52.102;5.776;2023-05-07T13:13:35;27.30;94.60
36990;DHT22;22898;52.102;5.776;2023-05-07T13:16:04;27.10;94.60
36990;DHT22;22898;52.102;5.776;2023-05-07T13:18:32;27.20;94.70
36990;DHT22;22898;52.102;5.776;2023-05-07T13:20:58;27.20;94.90
36990;DHT22;22898;52.102;5.776;2023-05-07T13:23:24;27.00;95.30
36990;DHT22;22898;52.102;5.776;2023-05-07T13:25:50;26.70;96.10
36990;DHT22;22898;52.102;5.776;2023-05-07T13:28:16;26.90;96.10
36990;DHT22;22898;52.102;5.776;2023-05-07T13:30:42;27.10;95.80
36990;DHT22;22898;52.102;5.776;2023-05-07T13:33:08;26.90;95.20
36990;DHT22;22898;52.102;5.776;2023-05-07T13:35:33;26.90;95.80
36990;DHT22;22898;52.102;5.776;2023-05-07T13:37:59;27.00;96.30
36990;DHT22;22898;52.102;5.776;2023-05-07T13:40:25;26.80;95.90
36990;DHT22;22898;52.102;5.776;2023-05-07T13:42:51;26.80;96.50
36990;DHT22;22898;52.102;5.776;2023-05-07T13:45:18;26.80;96.30
36990;DHT22;22898;52.102;5.776;2023-05-07T13:47:44;26.70;96.00
36990;DHT22;22898;52.102;5.776;2023-05-07T13:50:10;26.60;96.20
36990;DHT22;22898;52.102;5.776;2023-05-07T13:52:37;26.50;96.30
36990;DHT22;22898;52.102;5.776;2023-05-07T13:55:03;26.70;96.30
36990;DHT22;22898;52.102;5.776;2023-05-07T13:57:30;26.80;96.20
36990;DHT22;22898;52.102;5.776;2023-05-07T13:59:55;27.00;96.30
36990;DHT22;22898;52.102;5.776;2023-05-07T14:02:21;26.60;96.70
36990;DHT22;22898;52.102;5.776;2023-05-07T14:04:46;26.30;97.40
36990;DHT22;22898;52.102;5.776;2023-05-07T14:07:12;25.70;98.50
36990;DHT22;22898;52.102;5.776;2023-05-07T14:09:37;25.70;98.20
36990;DHT22;22898;52.102;5.776;2023-05-07T14:12:05;25.60;97.70
36990;DHT22;22898;52.102;5.776;2023-05-07T14:14:30;26.00;97.50
36990;DHT22;22898;52.102;5.776;2023-05-07T14:16:56;25.90;97.00
36990;DHT22;22898;52.102;5.776;2023-05-07T14:19:22;26.00;97.20
36990;DHT22;22898;52.102;5.776;2023-05-07T14:21:48;25.60;97.60
36990;DHT22;22898;52.102;5.776;2023-05-07T14:24:14;25.00;98.50
36990;DHT22;22898;52.102;5.776;2023-05-07T14:26:39;24.70;99.20
36990;DHT22;22898;52.102;5.776;2023-05-07T14:29:05;24.70;99.50
36990;DHT22;22898;52.102;5.776;2023-05-07T14:31:30;24.80;99.50
36990;DHT22;22898;52.102;5.776;2023-05-07T14:33:56;25.10;99.10
36990;DHT22;22898;52.102;5.776;2023-05-07T14:36:23;25.40;98.50
36990;DHT22;22898;52.102;5.776;2023-05-07T14:38:52;25.30;98.60
36990;DHT22;22898;52.102;5.776;2023-05-07T14:41:18;25.40;98.70
36990;DHT22;22898;52.102;5.776;2023-05-07T14:43:43;25.40;98.50
36990;DHT22;22898;52.102;5.776;2023-05-07T14:46:18;25.20;98.60
36990;DHT22;22898;52.102;5.776;2023-05-07T14:48:46;25.10;98.40
36990;DHT22;22898;52.102;5.776;2023-05-07T14:51:12;25.00;98.60
36990;DHT22;22898;52.102;5.776;2023-05-07T14:53:40;25.10;98.50
36990;DHT22;22898;52.102;5.776;2023-05-07T14:56:05;25.00;97.70
36990;DHT22;22898;52.102;5.776;2023-05-07T14:58:31;24.90;97.50
36990;DHT22;22898;52.102;5.776;2023-05-07T15:00:57;24.70;99.20
36990;DHT22;22898;52.102;5.776;2023-05-07T15:03:22;24.50;99.90
36990;DHT22;22898;52.102;5.776;2023-05-07T15:05:48;24.30;99.90
36990;DHT22;22898;52.102;5.776;2023-05-07T15:08:18;24.10;99.90
36990;DHT22;22898;52.102;5.776;2023-05-07T15:10:44;24.20;99.90
36990;DHT22;22898;52.102;5.776;2023-05-07T15:13:10;24.10;99.90
36990;DHT22;22898;52.102;5.776;2023-05-07T15:15:37;23.60;99.90
36990;DHT22;22898;52.102;5.776;2023-05-07T15:18:04;23.70;99.90
36990;DHT22;22898;52.102;5.776;2023-05-07T15:20:30;23.90;99.90
36990;DHT22;22898;52.102;5.776;2023-05-07T15:22:56;24.10;99.90
36990;DHT22;22898;52.102;5.776;2023-05-07T15:25:22;24.30;99.90
36990;DHT22;22898;52.102;5.776;2023-05-07T15:27:48;24.20;99.90
36990;DHT22;22898;52.102;5.776;2023-05-07T15:30:14;23.80;99.90
36990;DHT22;22898;52.102;5.776;2023-05-07T15:32:40;23.50;99.90
36990;DHT22;22898;52.102;5.776;2023-05-07T15:35:06;23.60;99.90
36990;DHT22;22898;52.102;5.776;2023-05-07T15:37:33;23.90;99.90